sensor_id;sensor_type;location;lat;lon;timestamp;pressure;altitude;pressure_sealevel;temperature;humidity
36798;BME280;22748;8.426;99.512;2023-08-31T00:00:22;100577.75;;;30.21;66.12
36798;BME280;22748;8.426;99.512;2023-08-31T00:02:55;100580.44;;;30.21;66.23
36798;BME280;22748;8.426;99.512;2023-08-31T00:05:26;100580.44;;;30.21;66.57
36798;BME280;22748;8.426;99.512;2023-08-31T00:07:58;100584.00;;;30.14;66.41
36798;BME280;22748;8.426;99.512;2023-08-31T00:10:30;100597.63;;;30.20;66.90
36798;BME280;22748;8.426;99.512;2023-08-31T00:13:00;100603.22;;;30.18;66.72
36798;BME280;22748;8.426;99.512;2023-08-31T00:15:33;100602.59;;;30.23;66.65
36798;BME280;22748;8.426;99.512;2023-08-31T00:18:04;100598.03;;;30.23;66.72
36798;BME280;22748;8.426;99.512;2023-08-31T00:20:35;100600.91;;;30.28;66.74
36798;BME280;22748;8.426;99.512;2023-08-31T00:23:05;100602.97;;;30.26;67.01
36798;BME280;22748;8.426;99.512;2023-08-31T00:25:39;100607.13;;;30.29;67.53
36798;BME280;22748;8.426;99.512;2023-08-31T00:28:10;100617.63;;;30.37;67.32
36798;BME280;22748;8.426;99.512;2023-08-31T00:30:45;100624.44;;;30.40;66.97
36798;BME280;22748;8.426;99.512;2023-08-31T00:33:16;100629.28;;;30.31;67.30
36798;BME280;22748;8.426;99.512;2023-08-31T00:35:46;100628.88;;;30.27;67.64
36798;BME280;22748;8.426;99.512;2023-08-31T00:38:16;100646.25;;;30.38;67.31
36798;BME280;22748;8.426;99.512;2023-08-31T00:40:47;100638.31;;;30.43;67.58
36798;BME280;22748;8.426;99.512;2023-08-31T00:43:17;100639.53;;;30.47;67.00
36798;BME280;22748;8.426;99.512;2023-08-31T00:45:51;100654.38;;;30.25;68.11
36798;BME280;22748;8.426;99.512;2023-08-31T00:48:25;100659.53;;;30.33;67.55
36798;BME280;22748;8.426;99.512;2023-08-31T00:50:56;100657.22;;;30.37;67.32
36798;BME280;22748;8.426;99.512;2023-08-31T00:53:30;100659.38;;;30.28;67.53
36798;BME280;22748;8.426;99.512;2023-08-31T00:56:03;100660.53;;;30.39;67.74
36798;BME280;22748;8.426;99.512;2023-08-31T00:58:36;100662.28;;;30.20;68.20
36798;BME280;22748;8.426;99.512;2023-08-31T01:01:14;100670.91;;;30.35;67.60
36798;BME280;22748;8.426;99.512;2023-08-31T01:03:53;100678.22;;;30.53;67.44
36798;BME280;22748;8.426;99.512;2023-08-31T01:06:35;100680.25;;;30.64;67.29
36798;BME280;22748;8.426;99.512;2023-08-31T01:09:15;100684.09;;;30.75;66.77
36798;BME280;22748;8.426;99.512;2023-08-31T01:11:57;100687.06;;;30.67;66.47
36798;BME280;22748;8.426;99.512;2023-08-31T01:14:34;100683.66;;;30.78;66.22
36798;BME280;22748;8.426;99.512;2023-08-31T01:17:12;100688.78;;;30.86;65.12
36798;BME280;22748;8.426;99.512;2023-08-31T01:19:48;100694.59;;;30.83;65.13
36798;BME280;22748;8.426;99.512;2023-08-31T01:22:38;100707.00;;;30.91;65.29
36798;BME280;22748;8.426;99.512;2023-08-31T01:25:12;100716.91;;;30.97;65.26
36798;BME280;22748;8.426;99.512;2023-08-31T01:27:44;100728.66;;;31.03;65.16
36798;BME280;22748;8.426;99.512;2023-08-31T01:30:17;100736.34;;;31.06;64.85
36798;BME280;22748;8.426;99.512;2023-08-31T01:32:48;100730.88;;;31.12;64.09
36798;BME280;22748;8.426;99.512;2023-08-31T01:35:19;100731.25;;;31.16;64.84
36798;BME280;22748;8.426;99.512;2023-08-31T01:37:51;100744.09;;;31.21;64.59
36798;BME280;22748;8.426;99.512;2023-08-31T01:40:30;100737.84;;;31.20;64.68
36798;BME280;22748;8.426;99.512;2023-08-31T01:43:01;100740.72;;;31.25;64.41
36798;BME280;22748;8.426;99.512;2023-08-31T01:45:35;100746.25;;;31.30;63.18
36798;BME280;22748;8.426;99.512;2023-08-31T01:48:07;100752.47;;;31.31;63.57
36798;BME280;22748;8.426;99.512;2023-08-31T01:50:38;100757.66;;;31.32;63.61
36798;BME280;22748;8.426;99.512;2023-08-31T01:53:07;100750.78;;;31.36;63.27
36798;BME280;22748;8.426;99.512;2023-08-31T01:55:40;100752.66;;;31.36;63.53
36798;BME280;22748;8.426;99.512;2023-08-31T01:58:12;100754.69;;;31.41;63.75
36798;BME280;22748;8.426;99.512;2023-08-31T02:00:43;100754.69;;;31.41;63.62
36798;BME280;22748;8.426;99.512;2023-08-31T02:03:13;100749.28;;;31.41;63.27
36798;BME280;22748;8.426;99.512;2023-08-31T02:05:44;100753.22;;;31.45;62.99
36798;BME280;22748;8.426;99.512;2023-08-31T02:08:15;100762.56;;;31.42;63.07
36798;BME280;22748;8.426;99.512;2023-08-31T02:10:50;100759.22;;;31.47;62.71
36798;BME280;22748;8.426;99.512;2023-08-31T02:13:21;100766.88;;;31.50;62.27
36798;BME280;22748;8.426;99.512;2023-08-31T02:15:55;100764.16;;;31.50;62.68
36798;BME280;22748;8.426;99.512;2023-08-31T02:18:26;100762.47;;;31.55;63.01
36798;BME280;22748;8.426;99.512;2023-08-31T02:20:57;100760.13;;;31.59;62.93
36798;BME280;22748;8.426;99.512;2023-08-31T02:23:26;100766.72;;;31.63;62.64
36798;BME280;22748;8.426;99.512;2023-08-31T02:25:58;100764.63;;;31.65;62.56
36798;BME280;22748;8.426;99.512;2023-08-31T02:28:30;100762.75;;;31.66;62.67
36798;BME280;22748;8.426;99.512;2023-08-31T02:31:01;100764.16;;;31.68;62.39
36798;BME280;22748;8.426;99.512;2023-08-31T02:33:32;100767.25;;;31.72;62.67
36798;BME280;22748;8.426;99.512;2023-08-31T02:36:02;100768.66;;;31.74;62.28
36798;BME280;22748;8.426;99.512;2023-08-31T02:38:33;100770.34;;;31.75;62.48
36798;BME280;22748;8.426;99.512;2023-08-31T02:41:06;100770.94;;;31.77;61.95
36798;BME280;22748;8.426;99.512;2023-08-31T02:43:37;100763.06;;;31.76;62.06
36798;BME280;22748;8.426;99.512;2023-08-31T02:46:07;100760.94;;;31.78;62.24
36798;BME280;22748;8.426;99.512;2023-08-31T02:48:37;100765.06;;;31.81;62.02
36798;BME280;22748;8.426;99.512;2023-08-31T02:51:07;100762.97;;;31.83;61.57
36798;BME280;22748;8.426;99.512;2023-08-31T02:53:38;100774.38;;;31.85;61.59
36798;BME280;22748;8.426;99.512;2023-08-31T02:56:10;100772.28;;;31.87;61.38
36798;BME280;22748;8.426;99.512;2023-08-31T02:58:41;100776.19;;;31.91;61.08
36798;BME280;22748;8.426;99.512;2023-08-31T03:01:12;100769.97;;;31.90;61.15
36798;BME280;22748;8.426;99.512;2023-08-31T03:03:43;100768.66;;;31.93;60.75
36798;BME280;22748;8.426;99.512;2023-08-31T03:06:15;100777.59;;;31.93;61.11
36798;BME280;22748;8.426;99.512;2023-08-31T03:08:46;100772.78;;;31.95;61.16
36798;BME280;22748;8.426;99.512;2023-08-31T03:11:19;100774.25;;;31.98;60.83
36798;BME280;22748;8.426;99.512;2023-08-31T03:13:49;100771.53;;;31.98;60.75
36798;BME280;22748;8.426;99.512;2023-08-31T03:16:19;100776.72;;;32.00;60.43
36798;BME280;22748;8.426;99.512;2023-08-31T03:18:50;100780.84;;;32.02;60.49
36798;BME280;22748;8.426;99.512;2023-08-31T03:21:21;100772.97;;;32.01;59.68
36798;BME280;22748;8.426;99.512;2023-08-31T03:23:52;100783.53;;;32.02;59.57
36798;BME280;22748;8.426;99.512;2023-08-31T03:26:27;100773.13;;;32.06;59.57
36798;BME280;22748;8.426;99.512;2023-08-31T03:28:58;100768.44;;;32.13;59.65
36798;BME280;22748;8.426;99.512;2023-08-31T03:31:29;100761.75;;;32.15;59.03
36798;BME280;22748;8.426;99.512;2023-08-31T03:34:01;100758.25;;;32.15;58.83
36798;BME280;22748;8.426;99.512;2023-08-31T03:36:31;100750.72;;;32.17;58.79
36798;BME280;22748;8.426;99.512;2023-08-31T03:39:03;100743.81;;;32.21;58.57
36798;BME280;22748;8.426;99.512;2023-08-31T03:41:36;100733.34;;;32.25;59.00
36798;BME280;22748;8.426;99.512;2023-08-31T03:44:06;100731.84;;;32.29;58.95
36798;BME280;22748;8.426;99.512;2023-08-31T03:46:36;100725.53;;;32.35;58.34
36798;BME280;22748;8.426;99.512;2023-08-31T03:49:08;100725.31;;;32.36;57.98
36798;BME280;22748;8.426;99.512;2023-08-31T03:51:39;100711.53;;;32.38;58.05
36798;BME280;22748;8.426;99.512;2023-08-31T03:54:09;100708.63;;;32.39;57.97
36798;BME280;22748;8.426;99.512;2023-08-31T03:56:41;100701.09;;;32.42;57.80
36798;BME280;22748;8.426;99.512;2023-08-31T03:59:13;100705.22;;;32.44;57.96
36798;BME280;22748;8.426;99.512;2023-08-31T04:01:44;100704.28;;;32.50;57.86
36798;BME280;22748;8.426;99.512;2023-08-31T04:04:13;100686.00;;;32.52;57.66
36798;BME280;22748;8.426;99.512;2023-08-31T04:06:43;100690.94;;;32.55;56.77
36798;BME280;22748;8.426;99.512;2023-08-31T04:09:13;100688.81;;;32.57;56.97
36798;BME280;22748;8.426;99.512;2023-08-31T04:11:46;100683.19;;;32.59;56.94
36798;BME280;22748;8.426;99.512;2023-08-31T04:14:16;100677.56;;;32.61;56.78
36798;BME280;22748;8.426;99.512;2023-08-31T04:16:46;100672.72;;;32.63;56.99
36798;BME280;22748;8.426;99.512;2023-08-31T04:19:17;100679.91;;;32.69;57.21
36798;BME280;22748;8.426;99.512;2023-08-31T04:21:48;100678.97;;;32.75;57.40
36798;BME280;22748;8.426;99.512;2023-08-31T04:24:19;100683.44;;;32.81;57.29
36798;BME280;22748;8.426;99.512;2023-08-31T04:26:54;100676.50;;;32.85;57.24
36798;BME280;22748;8.426;99.512;2023-08-31T04:29:26;100662.97;;;32.85;56.78
36798;BME280;22748;8.426;99.512;2023-08-31T04:31:58;100646.75;;;32.85;56.12
36798;BME280;22748;8.426;99.512;2023-08-31T04:34:29;100653.81;;;32.86;56.11
36798;BME280;22748;8.426;99.512;2023-08-31T04:36:59;100646.75;;;32.85;55.71
36798;BME280;22748;8.426;99.512;2023-08-31T04:39:31;100640.88;;;32.88;55.72
36798;BME280;22748;8.426;99.512;2023-08-31T04:42:04;100641.22;;;32.92;55.83
36798;BME280;22748;8.426;99.512;2023-08-31T04:44:35;100635.81;;;32.92;56.30
36798;BME280;22748;8.426;99.512;2023-08-31T04:47:06;100635.56;;;32.93;56.45
36798;BME280;22748;8.426;99.512;2023-08-31T04:49:37;100622.88;;;32.94;56.12
36798;BME280;22748;8.426;99.512;2023-08-31T04:52:08;100619.94;;;32.95;56.15
36798;BME280;22748;8.426;99.512;2023-08-31T04:54:39;100605.34;;;32.96;56.53
36798;BME280;22748;8.426;99.512;2023-08-31T04:57:12;100594.50;;;32.96;55.33
36798;BME280;22748;8.426;99.512;2023-08-31T04:59:43;100596.03;;;33.04;56.15
36798;BME280;22748;8.426;99.512;2023-08-31T05:02:14;100579.00;;;33.04;55.59
36798;BME280;22748;8.426;99.512;2023-08-31T05:04:45;100582.88;;;33.08;55.42
36798;BME280;22748;8.426;99.512;2023-08-31T05:07:14;100578.91;;;33.10;55.84
36798;BME280;22748;8.426;99.512;2023-08-31T05:09:44;100574.88;;;33.13;55.73
36798;BME280;22748;8.426;99.512;2023-08-31T05:12:18;100566.28;;;33.16;55.90
36798;BME280;22748;8.426;99.512;2023-08-31T05:14:49;100569.56;;;33.18;56.19
36798;BME280;22748;8.426;99.512;2023-08-31T05:17:19;100567.44;;;33.20;56.19
36798;BME280;22748;8.426;99.512;2023-08-31T05:19:50;100565.81;;;33.19;56.01
36798;BME280;22748;8.426;99.512;2023-08-31T05:22:20;100559.91;;;33.22;55.54
36798;BME280;22748;8.426;99.512;2023-08-31T05:24:53;100559.66;;;33.24;55.76
36798;BME280;22748;8.426;99.512;2023-08-31T05:27:27;100556.16;;;33.23;56.09
36798;BME280;22748;8.426;99.512;2023-08-31T05:29:58;100563.19;;;33.24;56.35
36798;BME280;22748;8.426;99.512;2023-08-31T05:32:28;100563.44;;;33.23;56.59
36798;BME280;22748;8.426;99.512;2023-08-31T05:34:59;100551.78;;;33.22;57.36
36798;BME280;22748;8.426;99.512;2023-08-31T05:37:33;100552.28;;;33.19;57.89
36798;BME280;22748;8.426;99.512;2023-08-31T05:40:05;100551.69;;;33.17;58.18
36798;BME280;22748;8.426;99.512;2023-08-31T05:42:41;100550.03;;;33.16;58.21
36798;BME280;22748;8.426;99.512;2023-08-31T05:45:12;100547.09;;;33.17;58.44
36798;BME280;22748;8.426;99.512;2023-08-31T05:47:43;100545.44;;;33.16;58.45
36798;BME280;22748;8.426;99.512;2023-08-31T05:50:15;100539.22;;;33.16;58.45
36798;BME280;22748;8.426;99.512;2023-08-31T05:52:45;100541.19;;;33.20;58.17
36798;BME280;22748;8.426;99.512;2023-08-31T05:55:16;100553.81;;;33.15;58.15
36798;BME280;22748;8.426;99.512;2023-08-31T05:57:49;100575.47;;;33.15;57.74
36798;BME280;22748;8.426;99.512;2023-08-31T06:00:20;100586.28;;;33.15;57.83
36798;BME280;22748;8.426;99.512;2023-08-31T06:02:50;100594.78;;;33.07;57.30
36798;BME280;22748;8.426;99.512;2023-08-31T06:05:21;100596.63;;;32.94;56.71
36798;BME280;22748;8.426;99.512;2023-08-31T06:07:51;100590.03;;;32.90;56.42
36798;BME280;22748;8.426;99.512;2023-08-31T06:10:23;100578.53;;;32.83;56.72
36798;BME280;22748;8.426;99.512;2023-08-31T06:12:55;100573.13;;;32.83;57.23
36798;BME280;22748;8.426;99.512;2023-08-31T06:15:26;100562.09;;;32.85;57.74
36798;BME280;22748;8.426;99.512;2023-08-31T06:17:57;100547.47;;;32.86;58.61
36798;BME280;22748;8.426;99.512;2023-08-31T06:20:28;100537.66;;;32.79;58.52
36798;BME280;22748;8.426;99.512;2023-08-31T06:22:59;100544.09;;;32.78;59.06
36798;BME280;22748;8.426;99.512;2023-08-31T06:25:30;100543.75;;;32.75;59.17
36798;BME280;22748;8.426;99.512;2023-08-31T06:28:02;100551.66;;;32.65;58.81
36798;BME280;22748;8.426;99.512;2023-08-31T06:30:35;100538.94;;;32.65;58.58
36798;BME280;22748;8.426;99.512;2023-08-31T06:33:06;100531.53;;;32.61;58.57
36798;BME280;22748;8.426;99.512;2023-08-31T06:35:36;100533.19;;;32.62;58.91
36798;BME280;22748;8.426;99.512;2023-08-31T06:38:11;100527.31;;;32.65;58.48
36798;BME280;22748;8.426;99.512;2023-08-31T06:40:43;100527.19;;;32.59;57.62
36798;BME280;22748;8.426;99.512;2023-08-31T06:43:15;100522.84;;;32.58;57.76
36798;BME280;22748;8.426;99.512;2023-08-31T06:45:46;100512.03;;;32.58;58.03
36798;BME280;22748;8.426;99.512;2023-08-31T06:48:16;100504.97;;;32.57;58.66
36798;BME280;22748;8.426;99.512;2023-08-31T06:50:48;100492.53;;;32.56;58.18
36798;BME280;22748;8.426;99.512;2023-08-31T06:53:19;100498.28;;;32.60;58.37
36798;BME280;22748;8.426;99.512;2023-08-31T06:55:48;100498.41;;;32.53;58.15
36798;BME280;22748;8.426;99.512;2023-08-31T06:58:23;100504.25;;;32.50;57.76
36798;BME280;22748;8.426;99.512;2023-08-31T07:00:54;100503.88;;;32.47;57.84
36798;BME280;22748;8.426;99.512;2023-08-31T07:03:24;100501.44;;;32.45;57.95
36798;BME280;22748;8.426;99.512;2023-08-31T07:05:55;100501.44;;;32.45;57.93
36798;BME280;22748;8.426;99.512;2023-08-31T07:08:25;100495.56;;;32.48;57.77
36798;BME280;22748;8.426;99.512;2023-08-31T07:10:56;100495.31;;;32.50;58.35
36798;BME280;22748;8.426;99.512;2023-08-31T07:13:28;100486.41;;;32.49;58.29
36798;BME280;22748;8.426;99.512;2023-08-31T07:15:59;100478.28;;;32.49;58.96
36798;BME280;22748;8.426;99.512;2023-08-31T07:18:28;100474.09;;;32.53;58.58
36798;BME280;22748;8.426;99.512;2023-08-31T07:20:59;100470.91;;;32.56;58.24
36798;BME280;22748;8.426;99.512;2023-08-31T07:23:29;100467.38;;;32.56;58.42
36798;BME280;22748;8.426;99.512;2023-08-31T07:26:08;100465.34;;;32.51;58.39
36798;BME280;22748;8.426;99.512;2023-08-31T07:28:48;100472.78;;;32.56;58.50
36798;BME280;22748;8.426;99.512;2023-08-31T07:31:20;100465.59;;;32.62;58.74
36798;BME280;22748;8.426;99.512;2023-08-31T07:33:51;100471.13;;;32.67;58.49
36798;BME280;22748;8.426;99.512;2023-08-31T07:36:22;100465.22;;;32.70;58.81
36798;BME280;22748;8.426;99.512;2023-08-31T07:38:54;100458.78;;;32.71;58.46
36798;BME280;22748;8.426;99.512;2023-08-31T07:41:26;100466.38;;;32.74;58.71
36798;BME280;22748;8.426;99.512;2023-08-31T07:43:59;100462.03;;;32.73;58.65
36798;BME280;22748;8.426;99.512;2023-08-31T07:46:30;100457.19;;;32.75;58.54
36798;BME280;22748;8.426;99.512;2023-08-31T07:49:00;100462.59;;;32.75;58.62
36798;BME280;22748;8.426;99.512;2023-08-31T07:51:35;100455.66;;;32.79;58.47
36798;BME280;22748;8.426;99.512;2023-08-31T07:54:07;100454.34;;;32.82;58.32
36798;BME280;22748;8.426;99.512;2023-08-31T07:56:38;100461.66;;;32.81;58.70
36798;BME280;22748;8.426;99.512;2023-08-31T07:59:13;100464.13;;;32.83;58.70
36798;BME280;22748;8.426;99.512;2023-08-31T08:01:45;100460.13;;;32.85;58.90
36798;BME280;22748;8.426;99.512;2023-08-31T08:04:15;100450.69;;;32.88;58.13
36798;BME280;22748;8.426;99.512;2023-08-31T08:06:48;100443.97;;;32.90;58.09
36798;BME280;22748;8.426;99.512;2023-08-31T08:09:22;100446.00;;;32.95;58.59
36798;BME280;22748;8.426;99.512;2023-08-31T08:11:54;100443.38;;;33.00;58.43
36798;BME280;22748;8.426;99.512;2023-08-31T08:14:27;100436.66;;;33.03;58.12
36798;BME280;22748;8.426;99.512;2023-08-31T08:16:59;100431.63;;;33.06;57.93
36798;BME280;22748;8.426;99.512;2023-08-31T08:19:30;100427.03;;;33.07;58.14
36798;BME280;22748;8.426;99.512;2023-08-31T08:22:02;100423.81;;;33.10;58.12
36798;BME280;22748;8.426;99.512;2023-08-31T08:24:33;100416.78;;;33.09;58.00
36798;BME280;22748;8.426;99.512;2023-08-31T08:27:05;100411.38;;;33.09;57.40
36798;BME280;22748;8.426;99.512;2023-08-31T08:29:37;100410.28;;;33.10;57.44
36798;BME280;22748;8.426;99.512;2023-08-31T08:32:07;100409.81;;;33.13;57.03
36798;BME280;22748;8.426;99.512;2023-08-31T08:34:37;100412.53;;;33.13;57.20
36798;BME280;22748;8.426;99.512;2023-08-31T08:37:07;100412.75;;;33.11;57.03
36798;BME280;22748;8.426;99.512;2023-08-31T08:39:38;100399.47;;;33.10;57.03
36798;BME280;22748;8.426;99.512;2023-08-31T08:42:10;100404.88;;;33.10;56.88
36798;BME280;22748;8.426;99.512;2023-08-31T08:44:45;100405.47;;;33.12;56.82
36798;BME280;22748;8.426;99.512;2023-08-31T08:47:16;100402.28;;;33.15;56.51
36798;BME280;22748;8.426;99.512;2023-08-31T08:49:48;100403.09;;;33.15;56.53
36798;BME280;22748;8.426;99.512;2023-08-31T08:52:19;100398.50;;;33.16;56.59
36798;BME280;22748;8.426;99.512;2023-08-31T08:54:50;100394.75;;;33.17;56.26
36798;BME280;22748;8.426;99.512;2023-08-31T08:57:21;100402.13;;;33.22;56.05
36798;BME280;22748;8.426;99.512;2023-08-31T08:59:53;100390.50;;;33.21;56.12
36798;BME280;22748;8.426;99.512;2023-08-31T09:02:24;100396.72;;;33.22;56.26
36798;BME280;22748;8.426;99.512;2023-08-31T09:04:54;100397.53;;;33.22;56.49
36798;BME280;22748;8.426;99.512;2023-08-31T09:07:24;100403.75;;;33.23;56.33
36798;BME280;22748;8.426;99.512;2023-08-31T09:09:55;100396.22;;;33.25;56.40
36798;BME280;22748;8.426;99.512;2023-08-31T09:12:25;100385.53;;;33.18;56.69
36798;BME280;22748;8.426;99.512;2023-08-31T09:15:01;100379.31;;;33.17;56.71
36798;BME280;22748;8.426;99.512;2023-08-31T09:17:42;100389.31;;;33.17;56.73
36798;BME280;22748;8.426;99.512;2023-08-31T09:20:13;100383.91;;;33.17;56.50
36798;BME280;22748;8.426;99.512;2023-08-31T09:22:44;100370.97;;;33.19;56.47
36798;BME280;22748;8.426;99.512;2023-08-31T09:25:16;100366.59;;;33.18;56.55
36798;BME280;22748;8.426;99.512;2023-08-31T09:27:48;100367.41;;;33.18;56.62
36798;BME280;22748;8.426;99.512;2023-08-31T09:30:21;100374.72;;;33.18;56.33
36798;BME280;22748;8.426;99.512;2023-08-31T09:32:54;100377.44;;;33.18;56.60
36798;BME280;22748;8.426;99.512;2023-08-31T09:35:24;100376.84;;;33.16;56.94
36798;BME280;22748;8.426;99.512;2023-08-31T09:37:59;100386.03;;;33.15;57.16
36798;BME280;22748;8.426;99.512;2023-08-31T09:40:30;100393.81;;;33.11;58.47
36798;BME280;22748;8.426;99.512;2023-08-31T09:43:02;100408.16;;;33.12;58.47
36798;BME280;22748;8.426;99.512;2023-08-31T09:45:36;100405.84;;;33.04;60.33
36798;BME280;22748;8.426;99.512;2023-08-31T09:48:07;100403.59;;;33.00;59.88
36798;BME280;22748;8.426;99.512;2023-08-31T09:50:39;100413.03;;;32.98;60.33
36798;BME280;22748;8.426;99.512;2023-08-31T09:53:11;100420.91;;;32.99;60.83
36798;BME280;22748;8.426;99.512;2023-08-31T09:55:49;100415.50;;;32.99;60.64
36798;BME280;22748;8.426;99.512;2023-08-31T09:58:22;100412.53;;;33.01;61.83
36798;BME280;22748;8.426;99.512;2023-08-31T10:00:55;100419.25;;;32.98;62.59
36798;BME280;22748;8.426;99.512;2023-08-31T10:03:26;100427.28;;;32.93;62.86
36798;BME280;22748;8.426;99.512;2023-08-31T10:05:57;100435.88;;;32.90;63.05
36798;BME280;22748;8.426;99.512;2023-08-31T10:08:29;100432.13;;;32.91;62.75
36798;BME280;22748;8.426;99.512;2023-08-31T10:11:03;100441.19;;;32.85;62.56
36798;BME280;22748;8.426;99.512;2023-08-31T10:13:35;100457.91;;;32.82;61.41
36798;BME280;22748;8.426;99.512;2023-08-31T10:16:11;100472.53;;;32.69;61.52
36798;BME280;22748;8.426;99.512;2023-08-31T10:18:43;100485.69;;;32.66;61.50
36798;BME280;22748;8.426;99.512;2023-08-31T10:21:16;100498.63;;;32.64;61.23
36798;BME280;22748;8.426;99.512;2023-08-31T10:23:47;100509.56;;;32.69;61.42
36798;BME280;22748;8.426;99.512;2023-08-31T10:26:26;100522.59;;;32.72;61.94
36798;BME280;22748;8.426;99.512;2023-08-31T10:28:57;100524.22;;;32.73;61.79
36798;BME280;22748;8.426;99.512;2023-08-31T10:31:33;100524.22;;;32.73;61.88
36798;BME280;22748;8.426;99.512;2023-08-31T10:34:06;100519.88;;;32.72;61.81
36798;BME280;22748;8.426;99.512;2023-08-31T10:36:39;100520.97;;;32.71;61.93
36798;BME280;22748;8.426;99.512;2023-08-31T10:39:14;100511.19;;;32.70;62.25
36798;BME280;22748;8.426;99.512;2023-08-31T10:41:53;100515.56;;;32.71;62.25
36798;BME280;22748;8.426;99.512;2023-08-31T10:44:25;100510.16;;;32.71;62.20
36798;BME280;22748;8.426;99.512;2023-08-31T10:47:00;100510.47;;;32.74;62.29
36798;BME280;22748;8.426;99.512;2023-08-31T10:49:33;100514.56;;;32.77;62.12
36798;BME280;22748;8.426;99.512;2023-08-31T10:52:19;100522.94;;;32.75;61.40
36798;BME280;22748;8.426;99.512;2023-08-31T10:54:55;100530.69;;;32.72;61.84
36798;BME280;22748;8.426;99.512;2023-08-31T10:57:31;100535.53;;;32.70;62.00
36798;BME280;22748;8.426;99.512;2023-08-31T11:00:02;100548.22;;;32.69;61.88
36798;BME280;22748;8.426;99.512;2023-08-31T11:02:38;100561.97;;;32.68;61.64
36798;BME280;22748;8.426;99.512;2023-08-31T11:05:12;100552.47;;;32.65;61.54
36798;BME280;22748;8.426;99.512;2023-08-31T11:07:44;100565.16;;;32.65;61.28
36798;BME280;22748;8.426;99.512;2023-08-31T11:10:24;100571.63;;;32.64;61.11
36798;BME280;22748;8.426;99.512;2023-08-31T11:13:02;100575.25;;;32.57;61.36
36798;BME280;22748;8.426;99.512;2023-08-31T11:15:36;100568.22;;;32.56;61.17
36798;BME280;22748;8.426;99.512;2023-08-31T11:18:21;100586.06;;;32.57;61.81
36798;BME280;22748;8.426;99.512;2023-08-31T11:20:55;100581.16;;;32.54;62.24
36798;BME280;22748;8.426;99.512;2023-08-31T11:23:33;100573.25;;;32.53;61.85
36798;BME280;22748;8.426;99.512;2023-08-31T11:26:06;100565.16;;;32.53;61.85
36798;BME280;22748;8.426;99.512;2023-08-31T11:28:50;100565.75;;;32.55;61.84
36798;BME280;22748;8.426;99.512;2023-08-31T11:31:24;100567.50;;;32.49;61.89
36798;BME280;22748;8.426;99.512;2023-08-31T11:33:58;100580.56;;;32.52;61.32
36798;BME280;22748;8.426;99.512;2023-08-31T11:36:30;100579.56;;;32.47;61.00
36798;BME280;22748;8.426;99.512;2023-08-31T11:39:17;100576.66;;;32.48;60.48
36798;BME280;22748;8.426;99.512;2023-08-31T11:41:53;100593.34;;;32.45;60.67
36798;BME280;22748;8.426;99.512;2023-08-31T11:44:43;100597.78;;;32.39;60.68
36798;BME280;22748;8.426;99.512;2023-08-31T11:47:15;100581.69;;;32.33;60.62
36798;BME280;22748;8.426;99.512;2023-08-31T11:50:28;100583.22;;;32.29;60.55
36798;BME280;22748;8.426;99.512;2023-08-31T11:52:59;100573.22;;;32.29;60.68
36798;BME280;22748;8.426;99.512;2023-08-31T11:55:34;100570.19;;;32.26;60.84
36798;BME280;22748;8.426;99.512;2023-08-31T11:58:16;100569.00;;;32.22;60.97
36798;BME280;22748;8.426;99.512;2023-08-31T12:00:54;100568.53;;;32.25;60.85
36798;BME280;22748;8.426;99.512;2023-08-31T12:03:27;100576.19;;;32.28;60.93
36798;BME280;22748;8.426;99.512;2023-08-31T12:05:59;100579.59;;;32.35;60.90
36798;BME280;22748;8.426;99.512;2023-08-31T12:08:34;100587.44;;;32.25;61.21
36798;BME280;22748;8.426;99.512;2023-08-31T12:11:07;100582.03;;;32.25;61.19
36798;BME280;22748;8.426;99.512;2023-08-31T12:13:44;100586.16;;;32.27;61.25
36798;BME280;22748;8.426;99.512;2023-08-31T12:16:14;100589.81;;;32.33;61.19
36798;BME280;22748;8.426;99.512;2023-08-31T12:18:45;100595.44;;;32.31;60.67
36798;BME280;22748;8.426;99.512;2023-08-31T12:21:19;100598.25;;;32.25;60.66
36798;BME280;22748;8.426;99.512;2023-08-31T12:23:50;100600.13;;;32.12;60.51
36798;BME280;22748;8.426;99.512;2023-08-31T12:26:20;100596.81;;;32.10;60.89
36798;BME280;22748;8.426;99.512;2023-08-31T12:28:51;100592.59;;;32.14;60.82
36798;BME280;22748;8.426;99.512;2023-08-31T12:31:22;100597.28;;;32.07;60.57
36798;BME280;22748;8.426;99.512;2023-08-31T12:33:52;100597.66;;;32.11;61.00
36798;BME280;22748;8.426;99.512;2023-08-31T12:36:25;100593.88;;;32.12;60.61
36798;BME280;22748;8.426;99.512;2023-08-31T12:38:55;100595.16;;;32.09;60.69
36798;BME280;22748;8.426;99.512;2023-08-31T12:41:29;100596.81;;;32.10;60.25
36798;BME280;22748;8.426;99.512;2023-08-31T12:44:00;100593.97;;;32.05;60.46
36798;BME280;22748;8.426;99.512;2023-08-31T12:46:31;100594.44;;;32.02;60.56
36798;BME280;22748;8.426;99.512;2023-08-31T12:49:03;100586.56;;;32.01;60.59
36798;BME280;22748;8.426;99.512;2023-08-31T12:51:37;100608.25;;;31.94;61.10
36798;BME280;22748;8.426;99.512;2023-08-31T12:54:08;100611.53;;;31.96;60.97
36798;BME280;22748;8.426;99.512;2023-08-31T12:56:40;100609.75;;;31.90;60.74
36798;BME280;22748;8.426;99.512;2023-08-31T12:59:11;100609.53;;;31.91;60.81
36798;BME280;22748;8.426;99.512;2023-08-31T13:01:40;100622.56;;;31.94;60.94
36798;BME280;22748;8.426;99.512;2023-08-31T13:04:12;100620.13;;;31.93;60.93
36798;BME280;22748;8.426;99.512;2023-08-31T13:06:44;100626.72;;;31.97;61.10
36798;BME280;22748;8.426;99.512;2023-08-31T13:09:13;100622.75;;;32.00;61.14
36798;BME280;22748;8.426;99.512;2023-08-31T13:11:43;100623.94;;;32.04;60.76
36798;BME280;22748;8.426;99.512;2023-08-31T13:14:13;100639.31;;;32.03;60.82
36798;BME280;22748;8.426;99.512;2023-08-31T13:16:44;100643.88;;;32.03;61.09